Cleveland, Ohio
Traffic Map
Current Weather Conditions
Cleveland, Ohio
Overcast
Overcast
48°
Feels Like: 39°
Wind Chill: 39° Ceiling: 3300
Heat Index: 48° Visibility: 10mi
Dew Point: 36° Wind: 31mph
Humidity: 63% Direction: 240° (WSW)
Pressure: 29.55in Gusts: 37mph
Raw Report DataKBKL 242153Z 24027G32KT 10SM OVC033 09/02 A2955 RMK AO2 PK WND 23037/2106 SLP006 T00890022
Traffic Incident Summary
Active as of:
Severity:
Category:
InformationThere was an issue retrieving the traffic information for this location. Please try a different location or try again shortly.
Advertisements
Track Severe Weather on mobile